sensor_id;sensor_type;location;lat;lon;timestamp;pressure;altitude;pressure_sealevel;temperature;humidity
9784;BME280;4931;44.874;-1.092;2022-07-29T00:00:30;101397.78;;;19.02;100.00
9784;BME280;4931;44.874;-1.092;2022-07-29T00:05:16;101399.88;;;18.96;100.00
9784;BME280;4931;44.874;-1.092;2022-07-29T00:10:03;101407.72;;;18.94;100.00
9784;BME280;4931;44.874;-1.092;2022-07-29T00:14:48;101407.72;;;18.94;100.00
9784;BME280;4931;44.874;-1.092;2022-07-29T00:19:36;101397.66;;;18.84;100.00
9784;BME280;4931;44.874;-1.092;2022-07-29T00:24:26;101402.31;;;18.89;100.00
9784;BME280;4931;44.874;-1.092;2022-07-29T00:29:11;101395.78;;;18.94;100.00
9784;BME280;4931;44.874;-1.092;2022-07-29T00:34:15;101394.72;;;18.81;100.00
9784;BME280;4931;44.874;-1.092;2022-07-29T00:39:15;101386.56;;;18.84;100.00
9784;BME280;4931;44.874;-1.092;2022-07-29T00:44:01;101385.56;;;18.80;100.00
9784;BME280;4931;44.874;-1.092;2022-07-29T00:48:46;101376.91;;;18.82;100.00
9784;BME280;4931;44.874;-1.092;2022-07-29T00:53:31;101368.69;;;18.77;100.00
9784;BME280;4931;44.874;-1.092;2022-07-29T00:58:19;101365.44;;;18.74;100.00
9784;BME280;4931;44.874;-1.092;2022-07-29T01:03:04;101369.00;;;18.66;100.00
9784;BME280;4931;44.874;-1.092;2022-07-29T01:07:53;101363.28;;;18.63;100.00
9784;BME280;4931;44.874;-1.092;2022-07-29T01:12:40;101367.81;;;18.58;100.00
9784;BME280;4931;44.874;-1.092;2022-07-29T01:17:32;101357.19;;;18.52;100.00
9784;BME280;4931;44.874;-1.092;2022-07-29T01:22:30;101360.25;;;18.50;100.00
9784;BME280;4931;44.874;-1.092;2022-07-29T01:27:32;101341.13;;;18.40;100.00
9784;BME280;4931;44.874;-1.092;2022-07-29T01:32:29;101338.16;;;18.36;100.00
9784;BME280;4931;44.874;-1.092;2022-07-29T01:37:18;101349.72;;;18.30;100.00
9784;BME280;4931;44.874;-1.092;2022-07-29T01:42:12;101325.31;;;18.18;100.00
9784;BME280;4931;44.874;-1.092;2022-07-29T01:47:05;101328.22;;;18.13;100.00
9784;BME280;4931;44.874;-1.092;2022-07-29T01:52:00;101334.38;;;18.09;100.00
9784;BME280;4931;44.874;-1.092;2022-07-29T01:56:50;101326.94;;;18.19;100.00
9784;BME280;4931;44.874;-1.092;2022-07-29T02:01:37;101334.75;;;18.17;100.00
9784;BME280;4931;44.874;-1.092;2022-07-29T02:06:26;101327.69;;;18.11;100.00
9784;BME280;4931;44.874;-1.092;2022-07-29T02:11:15;101316.91;;;18.09;100.00
9784;BME280;4931;44.874;-1.092;2022-07-29T02:16:01;101321.78;;;18.03;100.00
9784;BME280;4931;44.874;-1.092;2022-07-29T02:20:51;101322.91;;;18.02;100.00
9784;BME280;4931;44.874;-1.092;2022-07-29T02:25:37;101326.63;;;17.98;100.00
9784;BME280;4931;44.874;-1.092;2022-07-29T02:30:27;101322.72;;;17.99;100.00
9784;BME280;4931;44.874;-1.092;2022-07-29T02:35:14;101341.34;;;17.98;100.00
9784;BME280;4931;44.874;-1.092;2022-07-29T02:40:01;101323.56;;;17.99;100.00
9784;BME280;4931;44.874;-1.092;2022-07-29T02:44:46;101317.91;;;18.13;100.00
9784;BME280;4931;44.874;-1.092;2022-07-29T02:49:36;101307.66;;;18.14;100.00
9784;BME280;4931;44.874;-1.092;2022-07-29T02:54:27;101308.06;;;18.07;100.00
9784;BME280;4931;44.874;-1.092;2022-07-29T02:59:20;101310.78;;;18.21;100.00
9784;BME280;4931;44.874;-1.092;2022-07-29T03:04:08;101316.19;;;18.26;100.00
9784;BME280;4931;44.874;-1.092;2022-07-29T03:08:59;101314.94;;;18.32;100.00
9784;BME280;4931;44.874;-1.092;2022-07-29T03:13:50;101314.94;;;18.32;100.00
9784;BME280;4931;44.874;-1.092;2022-07-29T03:18:36;101334.31;;;18.23;100.00
9784;BME280;4931;44.874;-1.092;2022-07-29T03:23:22;101345.06;;;18.16;100.00
9784;BME280;4931;44.874;-1.092;2022-07-29T03:28:20;101334.25;;;18.15;100.00
9784;BME280;4931;44.874;-1.092;2022-07-29T03:33:07;101324.47;;;18.17;100.00
9784;BME280;4931;44.874;-1.092;2022-07-29T03:37:54;101319.28;;;18.24;100.00
9784;BME280;4931;44.874;-1.092;2022-07-29T03:42:40;101328.94;;;18.27;100.00
9784;BME280;4931;44.874;-1.092;2022-07-29T03:47:31;101335.03;;;18.38;100.00
9784;BME280;4931;44.874;-1.092;2022-07-29T03:52:33;101343.25;;;18.43;100.00
9784;BME280;4931;44.874;-1.092;2022-07-29T03:57:19;101354.94;;;18.31;100.00
9784;BME280;4931;44.874;-1.092;2022-07-29T04:02:09;101347.75;;;18.30;100.00
9784;BME280;4931;44.874;-1.092;2022-07-29T04:07:00;101340.31;;;18.17;100.00
9784;BME280;4931;44.874;-1.092;2022-07-29T04:11:45;101356.97;;;18.17;100.00
9784;BME280;4931;44.874;-1.092;2022-07-29T04:16:44;101358.78;;;18.21;100.00
9784;BME280;4931;44.874;-1.092;2022-07-29T04:21:29;101361.34;;;18.09;100.00
9784;BME280;4931;44.874;-1.092;2022-07-29T04:26:17;101377.19;;;18.08;100.00
9784;BME280;4931;44.874;-1.092;2022-07-29T04:31:02;101385.44;;;18.00;100.00
9784;BME280;4931;44.874;-1.092;2022-07-29T04:35:48;101398.72;;;17.89;100.00
9784;BME280;4931;44.874;-1.092;2022-07-29T04:40:36;101410.31;;;17.91;100.00
9784;BME280;4931;44.874;-1.092;2022-07-29T04:45:24;101421.03;;;17.84;100.00
9784;BME280;4931;44.874;-1.092;2022-07-29T04:50:10;101416.94;;;17.81;100.00
9784;BME280;4931;44.874;-1.092;2022-07-29T04:54:55;101441.81;;;17.72;100.00
9784;BME280;4931;44.874;-1.092;2022-07-29T04:59:41;101442.84;;;17.76;100.00
9784;BME280;4931;44.874;-1.092;2022-07-29T05:04:28;101442.59;;;17.87;100.00
9784;BME280;4931;44.874;-1.092;2022-07-29T05:09:14;101457.00;;;17.89;100.00
9784;BME280;4931;44.874;-1.092;2022-07-29T05:13:59;101454.22;;;17.89;100.00
9784;BME280;4931;44.874;-1.092;2022-07-29T05:18:44;101466.56;;;17.97;100.00
9784;BME280;4931;44.874;-1.092;2022-07-29T05:23:32;101478.56;;;17.92;100.00
9784;BME280;4931;44.874;-1.092;2022-07-29T05:28:17;101476.75;;;17.87;100.00
9784;BME280;4931;44.874;-1.092;2022-07-29T05:33:03;101484.75;;;17.89;100.00
9784;BME280;4931;44.874;-1.092;2022-07-29T05:37:48;101488.91;;;17.64;100.00
9784;BME280;4931;44.874;-1.092;2022-07-29T05:42:36;101479.81;;;17.86;100.00
9784;BME280;4931;44.874;-1.092;2022-07-29T05:47:22;101472.53;;;17.90;100.00
9784;BME280;4931;44.874;-1.092;2022-07-29T05:52:07;101484.13;;;17.92;100.00
9784;BME280;4931;44.874;-1.092;2022-07-29T05:56:52;101498.53;;;17.94;100.00
9784;BME280;4931;44.874;-1.092;2022-07-29T06:01:40;101504.28;;;17.98;100.00
9784;BME280;4931;44.874;-1.092;2022-07-29T06:06:26;101499.47;;;17.75;100.00
9784;BME280;4931;44.874;-1.092;2022-07-29T06:11:11;101500.78;;;17.92;100.00
9784;BME280;4931;44.874;-1.092;2022-07-29T06:15:56;101501.41;;;17.89;100.00
9784;BME280;4931;44.874;-1.092;2022-07-29T06:20:44;101508.59;;;18.04;100.00
9784;BME280;4931;44.874;-1.092;2022-07-29T06:25:30;101512.25;;;18.13;100.00
9784;BME280;4931;44.874;-1.092;2022-07-29T06:30:17;101513.88;;;18.28;100.00
9784;BME280;4931;44.874;-1.092;2022-07-29T06:35:03;101515.50;;;18.29;100.00
9784;BME280;4931;44.874;-1.092;2022-07-29T06:40:12;101523.91;;;18.38;100.00
9784;BME280;4931;44.874;-1.092;2022-07-29T06:45:10;101530.97;;;18.67;100.00
9784;BME280;4931;44.874;-1.092;2022-07-29T06:49:56;101534.34;;;19.00;100.00
9784;BME280;4931;44.874;-1.092;2022-07-29T06:54:42;101526.66;;;19.95;100.00
9784;BME280;4931;44.874;-1.092;2022-07-29T06:59:32;101533.16;;;19.73;100.00
9784;BME280;4931;44.874;-1.092;2022-07-29T07:04:17;101530.94;;;20.80;100.00
9784;BME280;4931;44.874;-1.092;2022-07-29T07:09:03;101523.91;;;21.30;100.00
9784;BME280;4931;44.874;-1.092;2022-07-29T07:13:48;101527.94;;;21.42;100.00
9784;BME280;4931;44.874;-1.092;2022-07-29T07:18:36;101551.66;;;22.16;100.00
9784;BME280;4931;44.874;-1.092;2022-07-29T07:23:21;101537.47;;;22.64;100.00
9784;BME280;4931;44.874;-1.092;2022-07-29T07:28:07;101528.72;;;22.86;100.00
9784;BME280;4931;44.874;-1.092;2022-07-29T07:32:52;101539.69;;;22.70;100.00
9784;BME280;4931;44.874;-1.092;2022-07-29T07:37:40;101538.69;;;23.21;100.00
9784;BME280;4931;44.874;-1.092;2022-07-29T07:42:26;101539.06;;;23.32;100.00
9784;BME280;4931;44.874;-1.092;2022-07-29T07:47:11;101548.56;;;22.73;100.00
9784;BME280;4931;44.874;-1.092;2022-07-29T07:51:59;101559.78;;;22.85;100.00
9784;BME280;4931;44.874;-1.092;2022-07-29T07:56:50;101570.06;;;23.27;100.00
9784;BME280;4931;44.874;-1.092;2022-07-29T08:01:35;101567.41;;;22.97;100.00
9784;BME280;4931;44.874;-1.092;2022-07-29T08:06:36;101569.75;;;23.65;100.00
9784;BME280;4931;44.874;-1.092;2022-07-29T08:11:22;101548.22;;;24.19;100.00
9784;BME280;4931;44.874;-1.092;2022-07-29T08:16:10;101542.47;;;24.68;100.00
9784;BME280;4931;44.874;-1.092;2022-07-29T08:20:58;101534.94;;;25.01;100.00
9784;BME280;4931;44.874;-1.092;2022-07-29T08:25:43;101538.88;;;24.84;100.00
9784;BME280;4931;44.874;-1.092;2022-07-29T08:30:31;101535.88;;;24.08;100.00
9784;BME280;4931;44.874;-1.092;2022-07-29T08:35:19;101540.13;;;23.40;100.00
9784;BME280;4931;44.874;-1.092;2022-07-29T08:40:05;101544.78;;;23.35;100.00
9784;BME280;4931;44.874;-1.092;2022-07-29T08:44:51;101534.75;;;23.22;100.00
9784;BME280;4931;44.874;-1.092;2022-07-29T08:49:37;101532.66;;;23.56;100.00
9784;BME280;4931;44.874;-1.092;2022-07-29T08:54:25;101529.03;;;23.68;100.00
9784;BME280;4931;44.874;-1.092;2022-07-29T08:59:11;101535.00;;;23.54;100.00
9784;BME280;4931;44.874;-1.092;2022-07-29T09:03:59;101532.41;;;23.98;100.00
9784;BME280;4931;44.874;-1.092;2022-07-29T09:08:45;101533.66;;;24.13;100.00
9784;BME280;4931;44.874;-1.092;2022-07-29T09:13:33;101540.50;;;24.28;100.00
9784;BME280;4931;44.874;-1.092;2022-07-29T09:18:33;101535.59;;;24.25;100.00
9784;BME280;4931;44.874;-1.092;2022-07-29T09:23:19;101541.34;;;24.57;100.00
9784;BME280;4931;44.874;-1.092;2022-07-29T09:28:06;101553.06;;;24.47;100.00
9784;BME280;4931;44.874;-1.092;2022-07-29T09:32:59;101557.44;;;24.60;100.00
9784;BME280;4931;44.874;-1.092;2022-07-29T09:37:45;101559.59;;;24.51;100.00
9784;BME280;4931;44.874;-1.092;2022-07-29T09:42:31;101563.84;;;24.32;100.00
9784;BME280;4931;44.874;-1.092;2022-07-29T09:47:18;101559.06;;;24.90;100.00
9784;BME280;4931;44.874;-1.092;2022-07-29T09:52:08;101550.94;;;25.80;100.00
9784;BME280;4931;44.874;-1.092;2022-07-29T09:56:55;101561.38;;;25.80;100.00
9784;BME280;4931;44.874;-1.092;2022-07-29T10:01:40;101560.41;;;26.08;100.00
9784;BME280;4931;44.874;-1.092;2022-07-29T10:06:26;101564.00;;;26.24;100.00
9784;BME280;4931;44.874;-1.092;2022-07-29T10:11:16;101558.22;;;26.37;100.00
9784;BME280;4931;44.874;-1.092;2022-07-29T10:16:04;101558.22;;;26.37;100.00
9784;BME280;4931;44.874;-1.092;2022-07-29T10:20:51;101566.94;;;26.12;100.00
9784;BME280;4931;44.874;-1.092;2022-07-29T10:25:37;101582.25;;;26.14;100.00
9784;BME280;4931;44.874;-1.092;2022-07-29T10:30:31;101582.03;;;26.04;100.00
9784;BME280;4931;44.874;-1.092;2022-07-29T10:35:27;101590.09;;;25.89;100.00
9784;BME280;4931;44.874;-1.092;2022-07-29T10:40:24;101588.59;;;26.47;100.00
9784;BME280;4931;44.874;-1.092;2022-07-29T10:45:25;101589.78;;;26.85;100.00
9784;BME280;4931;44.874;-1.092;2022-07-29T10:50:14;101589.44;;;27.10;100.00
9784;BME280;4931;44.874;-1.092;2022-07-29T10:55:02;101588.69;;;27.13;100.00
9784;BME280;4931;44.874;-1.092;2022-07-29T10:59:51;101587.50;;;27.14;100.00
9784;BME280;4931;44.874;-1.092;2022-07-29T11:05:00;101596.13;;;27.02;100.00
9784;BME280;4931;44.874;-1.092;2022-07-29T11:15:12;101594.75;;;27.15;100.00
9784;BME280;4931;44.874;-1.092;2022-07-29T11:25:16;101602.91;;;27.20;100.00
9784;BME280;4931;44.874;-1.092;2022-07-29T11:30:49;101591.81;;;27.08;100.00
9784;BME280;4931;44.874;-1.092;2022-07-29T11:35:36;101598.34;;;27.35;100.00
9784;BME280;4931;44.874;-1.092;2022-07-29T11:40:21;101598.94;;;27.25;100.00
9784;BME280;4931;44.874;-1.092;2022-07-29T11:45:12;101610.28;;;26.86;100.00
9784;BME280;4931;44.874;-1.092;2022-07-29T11:50:34;101606.22;;;26.83;100.00
9784;BME280;4931;44.874;-1.092;2022-07-29T11:55:26;101617.16;;;26.88;100.00
9784;BME280;4931;44.874;-1.092;2022-07-29T12:00:26;101615.81;;;27.67;100.00
9784;BME280;4931;44.874;-1.092;2022-07-29T12:05:12;101603.53;;;27.56;100.00
9784;BME280;4931;44.874;-1.092;2022-07-29T12:10:23;101602.94;;;28.20;100.00
9784;BME280;4931;44.874;-1.092;2022-07-29T12:15:16;101609.00;;;28.22;100.00
9784;BME280;4931;44.874;-1.092;2022-07-29T12:20:05;101603.81;;;28.24;100.00
9784;BME280;4931;44.874;-1.092;2022-07-29T12:24:53;101607.59;;;28.09;100.00
9784;BME280;4931;44.874;-1.092;2022-07-29T12:30:04;101613.88;;;27.48;100.00
9784;BME280;4931;44.874;-1.092;2022-07-29T12:34:50;101606.19;;;27.69;100.00
9784;BME280;4931;44.874;-1.092;2022-07-29T12:39:36;101617.91;;;27.97;100.00
9784;BME280;4931;44.874;-1.092;2022-07-29T12:44:23;101624.78;;;28.27;100.00
9784;BME280;4931;44.874;-1.092;2022-07-29T12:49:21;101637.56;;;28.17;100.00
9784;BME280;4931;44.874;-1.092;2022-07-29T12:54:10;101631.25;;;27.77;100.00
9784;BME280;4931;44.874;-1.092;2022-07-29T12:58:56;101631.25;;;27.77;100.00
9784;BME280;4931;44.874;-1.092;2022-07-29T13:03:44;101637.03;;;27.61;100.00
9784;BME280;4931;44.874;-1.092;2022-07-29T13:09:00;101634.78;;;27.05;100.00
9784;BME280;4931;44.874;-1.092;2022-07-29T13:13:50;101642.25;;;27.59;100.00
9784;BME280;4931;44.874;-1.092;2022-07-29T13:18:48;101638.06;;;27.99;100.00
9784;BME280;4931;44.874;-1.092;2022-07-29T13:23:51;101646.66;;;27.83;100.00
9784;BME280;4931;44.874;-1.092;2022-07-29T13:28:37;101649.44;;;27.14;100.00
9784;BME280;4931;44.874;-1.092;2022-07-29T13:33:25;101646.94;;;27.09;100.00
9784;BME280;4931;44.874;-1.092;2022-07-29T13:38:13;101647.72;;;27.09;100.00
9784;BME280;4931;44.874;-1.092;2022-07-29T13:43:02;101650.66;;;26.93;100.00
9784;BME280;4931;44.874;-1.092;2022-07-29T13:47:48;101650.91;;;26.68;100.00
9784;BME280;4931;44.874;-1.092;2022-07-29T13:52:35;101641.53;;;27.00;100.00
9784;BME280;4931;44.874;-1.092;2022-07-29T13:57:21;101640.94;;;26.91;100.00
9784;BME280;4931;44.874;-1.092;2022-07-29T14:02:10;101636.44;;;27.06;100.00
9784;BME280;4931;44.874;-1.092;2022-07-29T14:07:07;101649.13;;;26.60;100.00
9784;BME280;4931;44.874;-1.092;2022-07-29T14:11:57;101648.81;;;26.46;100.00
9784;BME280;4931;44.874;-1.092;2022-07-29T14:16:45;101654.97;;;26.87;100.00
9784;BME280;4931;44.874;-1.092;2022-07-29T14:21:36;101653.03;;;26.91;100.00
9784;BME280;4931;44.874;-1.092;2022-07-29T14:26:22;101653.13;;;26.95;100.00
9784;BME280;4931;44.874;-1.092;2022-07-29T14:31:09;101649.91;;;26.96;100.00
9784;BME280;4931;44.874;-1.092;2022-07-29T14:35:55;101650.03;;;27.04;100.00
9784;BME280;4931;44.874;-1.092;2022-07-29T14:40:45;101649.91;;;26.96;100.00
9784;BME280;4931;44.874;-1.092;2022-07-29T14:45:32;101652.75;;;26.77;100.00
9784;BME280;4931;44.874;-1.092;2022-07-29T14:50:18;101668.50;;;27.01;100.00
9784;BME280;4931;44.874;-1.092;2022-07-29T14:55:13;101668.13;;;26.83;100.00
9784;BME280;4931;44.874;-1.092;2022-07-29T15:00:05;101667.41;;;26.86;100.00
9784;BME280;4931;44.874;-1.092;2022-07-29T15:04:52;101667.78;;;27.04;100.00
9784;BME280;4931;44.874;-1.092;2022-07-29T15:09:39;101676.25;;;27.27;100.00
9784;BME280;4931;44.874;-1.092;2022-07-29T15:14:34;101679.34;;;27.22;100.00
9784;BME280;4931;44.874;-1.092;2022-07-29T15:19:22;101685.38;;;27.01;100.00
9784;BME280;4931;44.874;-1.092;2022-07-29T15:24:09;101675.97;;;26.74;100.00
9784;BME280;4931;44.874;-1.092;2022-07-29T15:28:54;101676.13;;;26.81;100.00
9784;BME280;4931;44.874;-1.092;2022-07-29T15:33:45;101676.56;;;26.83;100.00
9784;BME280;4931;44.874;-1.092;2022-07-29T15:38:39;101680.06;;;26.41;100.00
9784;BME280;4931;44.874;-1.092;2022-07-29T15:43:27;101661.94;;;26.58;100.00
9784;BME280;4931;44.874;-1.092;2022-07-29T15:48:12;101672.63;;;26.32;100.00
9784;BME280;4931;44.874;-1.092;2022-07-29T15:53:02;101678.81;;;26.22;100.00
9784;BME280;4931;44.874;-1.092;2022-07-29T15:57:51;101675.88;;;26.50;100.00
9784;BME280;4931;44.874;-1.092;2022-07-29T16:02:41;101669.88;;;26.52;100.00
9784;BME280;4931;44.874;-1.092;2022-07-29T16:07:27;101670.09;;;26.27;100.00
9784;BME280;4931;44.874;-1.092;2022-07-29T16:12:14;101645.59;;;26.44;100.00
9784;BME280;4931;44.874;-1.092;2022-07-29T16:17:02;101644.06;;;26.30;100.00
9784;BME280;4931;44.874;-1.092;2022-07-29T16:21:48;101627.97;;;26.11;100.00
9784;BME280;4931;44.874;-1.092;2022-07-29T16:26:40;101637.50;;;26.07;100.00
9784;BME280;4931;44.874;-1.092;2022-07-29T16:31:26;101647.28;;;26.13;100.00
9784;BME280;4931;44.874;-1.092;2022-07-29T16:36:15;101646.88;;;26.30;100.00
9784;BME280;4931;44.874;-1.092;2022-07-29T16:41:04;101655.91;;;26.20;100.00
9784;BME280;4931;44.874;-1.092;2022-07-29T16:45:50;101674.66;;;25.52;100.00
9784;BME280;4931;44.874;-1.092;2022-07-29T16:50:37;101678.28;;;25.68;100.00
9784;BME280;4931;44.874;-1.092;2022-07-29T16:55:27;101675.13;;;25.70;100.00
9784;BME280;4931;44.874;-1.092;2022-07-29T17:00:17;101676.94;;;25.62;100.00
9784;BME280;4931;44.874;-1.092;2022-07-29T17:05:03;101681.06;;;25.37;100.00
9784;BME280;4931;44.874;-1.092;2022-07-29T17:09:50;101672.22;;;25.22;100.00
9784;BME280;4931;44.874;-1.092;2022-07-29T17:14:43;101680.44;;;25.15;100.00
9784;BME280;4931;44.874;-1.092;2022-07-29T17:19:30;101676.31;;;24.96;100.00
9784;BME280;4931;44.874;-1.092;2022-07-29T17:24:18;101686.91;;;25.03;100.00
9784;BME280;4931;44.874;-1.092;2022-07-29T17:29:05;101690.38;;;24.84;100.00
9784;BME280;4931;44.874;-1.092;2022-07-29T17:33:54;101693.31;;;24.75;100.00
9784;BME280;4931;44.874;-1.092;2022-07-29T17:38:41;101697.16;;;24.83;100.00
9784;BME280;4931;44.874;-1.092;2022-07-29T17:43:27;101702.72;;;24.67;100.00
9784;BME280;4931;44.874;-1.092;2022-07-29T17:48:13;101705.16;;;24.68;100.00
9784;BME280;4931;44.874;-1.092;2022-07-29T17:53:02;101700.59;;;24.51;100.00
9784;BME280;4931;44.874;-1.092;2022-07-29T17:57:57;101710.78;;;24.44;100.00
9784;BME280;4931;44.874;-1.092;2022-07-29T18:02:43;101715.69;;;24.34;100.00
9784;BME280;4931;44.874;-1.092;2022-07-29T18:07:29;101733.56;;;24.30;100.00
9784;BME280;4931;44.874;-1.092;2022-07-29T18:12:18;101736.94;;;24.11;100.00
9784;BME280;4931;44.874;-1.092;2022-07-29T18:17:04;101738.34;;;24.04;100.00
9784;BME280;4931;44.874;-1.092;2022-07-29T18:21:50;101741.38;;;23.99;100.00
9784;BME280;4931;44.874;-1.092;2022-07-29T18:26:40;101737.88;;;24.02;100.00
9784;BME280;4931;44.874;-1.092;2022-07-29T18:31:28;101738.81;;;23.94;100.00
9784;BME280;4931;44.874;-1.092;2022-07-29T18:36:15;101735.59;;;23.83;100.00
9784;BME280;4931;44.874;-1.092;2022-07-29T18:41:03;101745.09;;;23.91;100.00
9784;BME280;4931;44.874;-1.092;2022-07-29T18:45:49;101750.16;;;23.77;100.00
9784;BME280;4931;44.874;-1.092;2022-07-29T18:50:38;101757.97;;;23.71;100.00
9784;BME280;4931;44.874;-1.092;2022-07-29T18:55:25;101755.53;;;23.69;100.00
9784;BME280;4931;44.874;-1.092;2022-07-29T19:00:11;101765.78;;;23.65;100.00
9784;BME280;4931;44.874;-1.092;2022-07-29T19:04:57;101767.97;;;23.60;100.00
9784;BME280;4931;44.874;-1.092;2022-07-29T19:09:46;101773.91;;;23.46;100.00
9784;BME280;4931;44.874;-1.092;2022-07-29T19:14:32;101777.16;;;23.48;100.00
9784;BME280;4931;44.874;-1.092;2022-07-29T19:19:18;101777.84;;;23.45;100.00
9784;BME280;4931;44.874;-1.092;2022-07-29T19:24:05;101789.00;;;23.32;100.00
9784;BME280;4931;44.874;-1.092;2022-07-29T19:28:59;101782.91;;;23.30;100.00
9784;BME280;4931;44.874;-1.092;2022-07-29T19:33:45;101779.16;;;23.26;100.00
9784;BME280;4931;44.874;-1.092;2022-07-29T19:38:31;101788.34;;;23.05;100.00
9784;BME280;4931;44.874;-1.092;2022-07-29T19:43:17;101782.34;;;22.95;100.00
9784;BME280;4931;44.874;-1.092;2022-07-29T19:48:26;101787.25;;;22.98;100.00
9784;BME280;4931;44.874;-1.092;2022-07-29T19:53:12;101787.09;;;22.94;100.00
9784;BME280;4931;44.874;-1.092;2022-07-29T19:57:58;101802.47;;;22.88;100.00
9784;BME280;4931;44.874;-1.092;2022-07-29T20:02:46;101810.56;;;22.81;100.00
9784;BME280;4931;44.874;-1.092;2022-07-29T20:07:38;101811.13;;;22.65;100.00
9784;BME280;4931;44.874;-1.092;2022-07-29T20:12:24;101827.97;;;22.57;100.00
9784;BME280;4931;44.874;-1.092;2022-07-29T20:17:10;101830.19;;;22.42;100.00
9784;BME280;4931;44.874;-1.092;2022-07-29T20:21:56;101843.53;;;22.28;100.00
9784;BME280;4931;44.874;-1.092;2022-07-29T20:26:45;101848.47;;;22.22;100.00
9784;BME280;4931;44.874;-1.092;2022-07-29T20:31:31;101851.63;;;22.12;100.00
9784;BME280;4931;44.874;-1.092;2022-07-29T20:36:17;101860.19;;;22.07;100.00
9784;BME280;4931;44.874;-1.092;2022-07-29T20:41:03;101853.63;;;22.02;100.00
9784;BME280;4931;44.874;-1.092;2022-07-29T20:45:51;101867.59;;;21.94;100.00
9784;BME280;4931;44.874;-1.092;2022-07-29T20:50:37;101867.59;;;21.85;100.00
9784;BME280;4931;44.874;-1.092;2022-07-29T20:55:24;101875.31;;;21.70;100.00
9784;BME280;4931;44.874;-1.092;2022-07-29T21:00:11;101875.31;;;21.70;100.00
9784;BME280;4931;44.874;-1.092;2022-07-29T21:04:59;101879.63;;;21.59;100.00
9784;BME280;4931;44.874;-1.092;2022-07-29T21:09:45;101884.97;;;21.47;100.00
9784;BME280;4931;44.874;-1.092;2022-07-29T21:14:32;101882.19;;;21.38;100.00
9784;BME280;4931;44.874;-1.092;2022-07-29T21:19:34;101883.00;;;21.30;100.00
9784;BME280;4931;44.874;-1.092;2022-07-29T21:24:22;101886.59;;;21.21;100.00
9784;BME280;4931;44.874;-1.092;2022-07-29T21:29:08;101883.47;;;21.23;100.00
9784;BME280;4931;44.874;-1.092;2022-07-29T21:33:53;101879.84;;;21.14;100.00
9784;BME280;4931;44.874;-1.092;2022-07-29T21:38:39;101887.81;;;20.89;100.00
9784;BME280;4931;44.874;-1.092;2022-07-29T21:43:26;101884.91;;;20.63;100.00
9784;BME280;4931;44.874;-1.092;2022-07-29T21:48:12;101885.88;;;20.58;100.00
9784;BME280;4931;44.874;-1.092;2022-07-29T21:52:57;101886.78;;;20.45;100.00
9784;BME280;4931;44.874;-1.092;2022-07-29T21:57:45;101879.72;;;20.38;100.00
9784;BME280;4931;44.874;-1.092;2022-07-29T22:02:32;101885.44;;;20.33;100.00
9784;BME280;4931;44.874;-1.092;2022-07-29T22:07:18;101882.25;;;20.26;100.00
9784;BME280;4931;44.874;-1.092;2022-07-29T22:12:04;101898.50;;;20.24;100.00
9784;BME280;4931;44.874;-1.092;2022-07-29T22:16:50;101901.59;;;20.22;100.00
9784;BME280;4931;44.874;-1.092;2022-07-29T22:21:42;101901.22;;;20.15;100.00
9784;BME280;4931;44.874;-1.092;2022-07-29T22:26:28;101896.47;;;20.16;100.00
9784;BME280;4931;44.874;-1.092;2022-07-29T22:31:13;101893.53;;;20.21;100.00
9784;BME280;4931;44.874;-1.092;2022-07-29T22:35:59;101901.78;;;20.03;100.00
9784;BME280;4931;44.874;-1.092;2022-07-29T22:40:46;101898.22;;;19.66;100.00
9784;BME280;4931;44.874;-1.092;2022-07-29T22:45:32;101895.63;;;19.70;100.00
9784;BME280;4931;44.874;-1.092;2022-07-29T22:50:18;101894.53;;;19.57;100.00
9784;BME280;4931;44.874;-1.092;2022-07-29T22:55:04;101898.88;;;19.49;100.00
9784;BME280;4931;44.874;-1.092;2022-07-29T22:59:51;101896.22;;;19.44;100.00
9784;BME280;4931;44.874;-1.092;2022-07-29T23:04:37;101905.59;;;19.34;100.00
9784;BME280;4931;44.874;-1.092;2022-07-29T23:09:22;101903.53;;;19.26;100.00
9784;BME280;4931;44.874;-1.092;2022-07-29T23:14:07;101900.06;;;19.20;100.00
9784;BME280;4931;44.874;-1.092;2022-07-29T23:18:55;101897.16;;;19.26;100.00
9784;BME280;4931;44.874;-1.092;2022-07-29T23:23:40;101901.47;;;19.32;100.00
9784;BME280;4931;44.874;-1.092;2022-07-29T23:28:26;101895.31;;;19.21;100.00
9784;BME280;4931;44.874;-1.092;2022-07-29T23:33:12;101906.97;;;19.23;100.00
9784;BME280;4931;44.874;-1.092;2022-07-29T23:38:00;101898.41;;;19.19;100.00
9784;BME280;4931;44.874;-1.092;2022-07-29T23:42:45;101899.66;;;19.13;100.00
9784;BME280;4931;44.874;-1.092;2022-07-29T23:47:30;101894.13;;;18.99;100.00
9784;BME280;4931;44.874;-1.092;2022-07-29T23:52:16;101902.13;;;19.01;100.00
9784;BME280;4931;44.874;-1.092;2022-07-29T23:57:03;101893.13;;;18.62;100.00
